Pagrindinis puslapis
METAR-TAF:

METAR-TAF

Oro uostai :

Dalhart Municipal Airport

Dalhart, Teksasas, Jungtinės Amerikos Valstijos

platuma: 36-01-24N, ilguma: 102-32-50W, Aukštis: 1216 m

Dabartinis oras

Ataskaita buvo paskelbta 36 minutes, ne 10:53 UTC
Vėjas 10 kt iš Pietų
Temperatūra 10°C
Drėgmė 62%
Slėgis 1020 hPa
Matomumas: 16.1 km
Giedras dangus

METAR: KDHT 231053Z AUTO 19010KT 10SM CLR 10/03 A3011 RMK AO2 SLP153 T01000033

Laikas: 06:29 (11:29 UTC)

Prognozė

Ataskaita buvo paskelbta 5 valandos ir 53 minutes, ne 05:36 UTC
Prognozė galioja nuo 23 metu 06 UTC su 24 metu 06 UTC
Vėjas 11 kt iš Pietų
Matomumas: 10 km
Giedras dangus

TAF: KDHT 230536Z 2306/2406 19011KT P6SM SKC

Orai ataskaitas ir orų prognozės (METAR, TAF).

turimą stotys yra geltonos ir raudonos taškus žemėlapyje.

Perkelti pele per norėdami pamatyti stoties vardą.

Tada spustelėkite, norėdami matyti oro stebėjimo ir prognozės.

Norėdami pakeisti žemėlapį: spustelėkite ant žalios mygtukų su juodo kryžiaus žemyn,; žalią mygtuką su brūkšneliu, jei norite nutolinti; arba žalių rodyklių gretimoms žemėlapius.


METAR-TAF: